sensor_id;sensor_type;location;lat;lon;timestamp;P1;durP1;ratioP1;P2;durP2;ratioP2
37983;SDS011;64625;50.882;4.376;2022-10-31T00:00:27;30.70;;;8.90;;
37983;SDS011;64625;50.882;4.376;2022-10-31T00:02:53;22.27;;;7.93;;
37983;SDS011;64625;50.882;4.376;2022-10-31T00:05:18;18.55;;;8.40;;
37983;SDS011;64625;50.882;4.376;2022-10-31T00:07:44;17.65;;;8.38;;
37983;SDS011;64625;50.882;4.376;2022-10-31T00:10:10;16.88;;;7.63;;
37983;SDS011;64625;50.882;4.376;2022-10-31T00:12:36;22.58;;;8.75;;
37983;SDS011;64625;50.882;4.376;2022-10-31T00:15:02;11.88;;;8.02;;
37983;SDS011;64625;50.882;4.376;2022-10-31T00:17:28;17.48;;;8.57;;
37983;SDS011;64625;50.882;4.376;2022-10-31T00:19:53;19.55;;;8.45;;
37983;SDS011;64625;50.882;4.376;2022-10-31T00:22:19;15.52;;;8.30;;
37983;SDS011;64625;50.882;4.376;2022-10-31T00:24:45;15.15;;;8.13;;
37983;SDS011;64625;50.882;4.376;2022-10-31T00:27:11;19.77;;;8.32;;
37983;SDS011;64625;50.882;4.376;2022-10-31T00:29:36;23.02;;;9.05;;
37983;SDS011;64625;50.882;4.376;2022-10-31T00:32:02;19.63;;;8.18;;
37983;SDS011;64625;50.882;4.376;2022-10-31T00:34:28;29.25;;;8.15;;
37983;SDS011;64625;50.882;4.376;2022-10-31T00:36:53;18.08;;;8.30;;
37983;SDS011;64625;50.882;4.376;2022-10-31T00:39:19;15.85;;;7.93;;
37983;SDS011;64625;50.882;4.376;2022-10-31T00:41:45;15.63;;;8.30;;
37983;SDS011;64625;50.882;4.376;2022-10-31T00:44:10;18.98;;;8.70;;
37983;SDS011;64625;50.882;4.376;2022-10-31T00:46:36;17.50;;;8.52;;
37983;SDS011;64625;50.882;4.376;2022-10-31T00:49:02;16.95;;;7.47;;
37983;SDS011;64625;50.882;4.376;2022-10-31T00:51:28;23.17;;;9.45;;
37983;SDS011;64625;50.882;4.376;2022-10-31T00:53:53;21.70;;;9.38;;
37983;SDS011;64625;50.882;4.376;2022-10-31T00:56:19;19.40;;;9.00;;
37983;SDS011;64625;50.882;4.376;2022-10-31T00:58:45;18.42;;;8.73;;
37983;SDS011;64625;50.882;4.376;2022-10-31T01:01:11;20.85;;;8.43;;
37983;SDS011;64625;50.882;4.376;2022-10-31T01:03:36;20.40;;;8.57;;
37983;SDS011;64625;50.882;4.376;2022-10-31T01:06:05;17.88;;;8.50;;
37983;SDS011;64625;50.882;4.376;2022-10-31T01:08:33;22.23;;;8.57;;
37983;SDS011;64625;50.882;4.376;2022-10-31T01:13:39;13.93;;;7.68;;
37983;SDS011;64625;50.882;4.376;2022-10-31T01:16:06;18.38;;;8.80;;
37983;SDS011;64625;50.882;4.376;2022-10-31T01:18:35;22.30;;;8.93;;
37983;SDS011;64625;50.882;4.376;2022-10-31T01:21:02;24.30;;;8.80;;
37983;SDS011;64625;50.882;4.376;2022-10-31T01:23:33;21.75;;;8.30;;
37983;SDS011;64625;50.882;4.376;2022-10-31T01:26:04;17.70;;;9.77;;
37983;SDS011;64625;50.882;4.376;2022-10-31T01:28:33;13.55;;;7.78;;
37983;SDS011;64625;50.882;4.376;2022-10-31T01:31:01;18.42;;;8.18;;
37983;SDS011;64625;50.882;4.376;2022-10-31T01:33:29;13.77;;;8.25;;
37983;SDS011;64625;50.882;4.376;2022-10-31T01:35:55;23.92;;;8.65;;
37983;SDS011;64625;50.882;4.376;2022-10-31T01:38:20;21.52;;;8.18;;
37983;SDS011;64625;50.882;4.376;2022-10-31T01:40:47;16.80;;;8.98;;
37983;SDS011;64625;50.882;4.376;2022-10-31T01:43:13;14.15;;;8.65;;
37983;SDS011;64625;50.882;4.376;2022-10-31T01:45:40;20.38;;;8.60;;
37983;SDS011;64625;50.882;4.376;2022-10-31T01:48:15;19.45;;;8.45;;
37983;SDS011;64625;50.882;4.376;2022-10-31T01:50:49;15.10;;;8.07;;
37983;SDS011;64625;50.882;4.376;2022-10-31T01:53:19;26.48;;;8.80;;
37983;SDS011;64625;50.882;4.376;2022-10-31T01:55:46;16.63;;;8.00;;
37983;SDS011;64625;50.882;4.376;2022-10-31T01:58:18;15.60;;;8.60;;
37983;SDS011;64625;50.882;4.376;2022-10-31T02:00:48;17.52;;;8.77;;
37983;SDS011;64625;50.882;4.376;2022-10-31T02:03:20;20.63;;;9.13;;
37983;SDS011;64625;50.882;4.376;2022-10-31T02:05:47;18.45;;;7.40;;
37983;SDS011;64625;50.882;4.376;2022-10-31T02:08:26;24.00;;;7.65;;
37983;SDS011;64625;50.882;4.376;2022-10-31T02:10:54;15.30;;;7.53;;
37983;SDS011;64625;50.882;4.376;2022-10-31T02:13:21;15.55;;;7.88;;
37983;SDS011;64625;50.882;4.376;2022-10-31T02:15:49;15.77;;;7.13;;
37983;SDS011;64625;50.882;4.376;2022-10-31T02:18:17;12.75;;;7.22;;
37983;SDS011;64625;50.882;4.376;2022-10-31T02:20:49;13.02;;;7.53;;
37983;SDS011;64625;50.882;4.376;2022-10-31T02:28:53;15.85;;;6.82;;
37983;SDS011;64625;50.882;4.376;2022-10-31T02:31:43;13.25;;;9.15;;
37983;SDS011;64625;50.882;4.376;2022-10-31T02:39:21;25.63;;;7.90;;
37983;SDS011;64625;50.882;4.376;2022-10-31T02:47:03;15.70;;;8.18;;
37983;SDS011;64625;50.882;4.376;2022-10-31T02:49:35;28.25;;;8.18;;
37983;SDS011;64625;50.882;4.376;2022-10-31T02:54:44;30.35;;;9.40;;
37983;SDS011;64625;50.882;4.376;2022-10-31T02:57:11;13.43;;;6.95;;
37983;SDS011;64625;50.882;4.376;2022-10-31T02:59:44;15.68;;;7.68;;
37983;SDS011;64625;50.882;4.376;2022-10-31T03:10:10;13.52;;;8.43;;
37983;SDS011;64625;50.882;4.376;2022-10-31T03:16:09;12.40;;;8.05;;
37983;SDS011;64625;50.882;4.376;2022-10-31T03:23:59;21.98;;;7.90;;
37983;SDS011;64625;50.882;4.376;2022-10-31T03:26:26;17.08;;;8.77;;
37983;SDS011;64625;50.882;4.376;2022-10-31T03:28:57;20.40;;;7.28;;
37983;SDS011;64625;50.882;4.376;2022-10-31T03:31:29;18.27;;;7.55;;
37983;SDS011;64625;50.882;4.376;2022-10-31T03:34:02;16.67;;;8.27;;
37983;SDS011;64625;50.882;4.376;2022-10-31T03:36:31;19.05;;;8.65;;
37983;SDS011;64625;50.882;4.376;2022-10-31T03:38:59;23.33;;;7.38;;
37983;SDS011;64625;50.882;4.376;2022-10-31T03:41:31;18.27;;;7.75;;
37983;SDS011;64625;50.882;4.376;2022-10-31T03:44:03;19.73;;;7.57;;
37983;SDS011;64625;50.882;4.376;2022-10-31T03:46:32;14.48;;;8.32;;
37983;SDS011;64625;50.882;4.376;2022-10-31T03:48:58;22.77;;;7.68;;
37983;SDS011;64625;50.882;4.376;2022-10-31T03:56:45;17.63;;;9.32;;
37983;SDS011;64625;50.882;4.376;2022-10-31T03:59:14;33.90;;;9.15;;
37983;SDS011;64625;50.882;4.376;2022-10-31T04:01:51;24.13;;;9.40;;
37983;SDS011;64625;50.882;4.376;2022-10-31T04:06:48;36.67;;;10.52;;
37983;SDS011;64625;50.882;4.376;2022-10-31T04:09:16;42.40;;;12.15;;
37983;SDS011;64625;50.882;4.376;2022-10-31T04:11:48;30.42;;;10.07;;
37983;SDS011;64625;50.882;4.376;2022-10-31T04:14:18;42.50;;;10.00;;
37983;SDS011;64625;50.882;4.376;2022-10-31T04:16:45;42.30;;;10.95;;
37983;SDS011;64625;50.882;4.376;2022-10-31T04:19:11;23.80;;;9.88;;
37983;SDS011;64625;50.882;4.376;2022-10-31T04:21:37;23.23;;;9.32;;
37983;SDS011;64625;50.882;4.376;2022-10-31T04:24:03;27.05;;;9.88;;
37983;SDS011;64625;50.882;4.376;2022-10-31T04:26:30;22.95;;;8.75;;
37983;SDS011;64625;50.882;4.376;2022-10-31T04:28:55;23.27;;;10.65;;
37983;SDS011;64625;50.882;4.376;2022-10-31T04:31:21;27.42;;;10.40;;
37983;SDS011;64625;50.882;4.376;2022-10-31T04:33:47;18.27;;;10.23;;
37983;SDS011;64625;50.882;4.376;2022-10-31T04:36:12;25.10;;;9.30;;
37983;SDS011;64625;50.882;4.376;2022-10-31T04:38:39;33.28;;;10.00;;
37983;SDS011;64625;50.882;4.376;2022-10-31T04:41:04;24.27;;;8.68;;
37983;SDS011;64625;50.882;4.376;2022-10-31T04:43:30;20.80;;;10.30;;
37983;SDS011;64625;50.882;4.376;2022-10-31T04:45:56;32.65;;;9.15;;
37983;SDS011;64625;50.882;4.376;2022-10-31T04:48:22;26.92;;;9.57;;
37983;SDS011;64625;50.882;4.376;2022-10-31T04:50:47;28.63;;;10.18;;
37983;SDS011;64625;50.882;4.376;2022-10-31T04:53:13;15.70;;;8.18;;
37983;SDS011;64625;50.882;4.376;2022-10-31T04:55:39;35.78;;;11.48;;
37983;SDS011;64625;50.882;4.376;2022-10-31T04:58:05;18.95;;;9.13;;
37983;SDS011;64625;50.882;4.376;2022-10-31T05:00:30;23.20;;;9.55;;
37983;SDS011;64625;50.882;4.376;2022-10-31T05:02:57;22.55;;;9.63;;
37983;SDS011;64625;50.882;4.376;2022-10-31T05:05:24;21.52;;;9.68;;
37983;SDS011;64625;50.882;4.376;2022-10-31T05:07:54;19.73;;;8.80;;
37983;SDS011;64625;50.882;4.376;2022-10-31T05:10:22;31.50;;;13.38;;
37983;SDS011;64625;50.882;4.376;2022-10-31T05:12:53;18.58;;;9.13;;
37983;SDS011;64625;50.882;4.376;2022-10-31T05:15:22;31.65;;;8.80;;
37983;SDS011;64625;50.882;4.376;2022-10-31T05:17:49;19.20;;;8.48;;
37983;SDS011;64625;50.882;4.376;2022-10-31T05:20:16;25.15;;;8.02;;
37983;SDS011;64625;50.882;4.376;2022-10-31T05:22:47;14.75;;;9.00;;
37983;SDS011;64625;50.882;4.376;2022-10-31T05:27:41;20.10;;;9.98;;
37983;SDS011;64625;50.882;4.376;2022-10-31T05:30:09;22.65;;;8.73;;
37983;SDS011;64625;50.882;4.376;2022-10-31T05:35:11;28.23;;;10.00;;
37983;SDS011;64625;50.882;4.376;2022-10-31T05:37:38;16.27;;;9.18;;
37983;SDS011;64625;50.882;4.376;2022-10-31T05:40:05;26.33;;;9.40;;
37983;SDS011;64625;50.882;4.376;2022-10-31T05:42:32;28.13;;;10.13;;
37983;SDS011;64625;50.882;4.376;2022-10-31T05:44:58;25.63;;;9.60;;
37983;SDS011;64625;50.882;4.376;2022-10-31T05:47:24;18.23;;;9.43;;
37983;SDS011;64625;50.882;4.376;2022-10-31T05:49:50;24.90;;;11.70;;
37983;SDS011;64625;50.882;4.376;2022-10-31T05:52:17;24.23;;;8.95;;
37983;SDS011;64625;50.882;4.376;2022-10-31T05:54:43;35.65;;;9.43;;
37983;SDS011;64625;50.882;4.376;2022-10-31T05:57:09;30.40;;;9.63;;
37983;SDS011;64625;50.882;4.376;2022-10-31T05:59:35;23.42;;;10.93;;
37983;SDS011;64625;50.882;4.376;2022-10-31T06:02:01;25.77;;;11.05;;
37983;SDS011;64625;50.882;4.376;2022-10-31T06:04:27;23.15;;;10.88;;
37983;SDS011;64625;50.882;4.376;2022-10-31T06:06:53;28.15;;;10.90;;
37983;SDS011;64625;50.882;4.376;2022-10-31T06:09:19;30.27;;;9.98;;
37983;SDS011;64625;50.882;4.376;2022-10-31T06:11:44;20.35;;;9.35;;
37983;SDS011;64625;50.882;4.376;2022-10-31T06:14:10;18.58;;;9.60;;
37983;SDS011;64625;50.882;4.376;2022-10-31T06:16:39;31.35;;;12.50;;
37983;SDS011;64625;50.882;4.376;2022-10-31T06:19:05;26.17;;;10.35;;
37983;SDS011;64625;50.882;4.376;2022-10-31T06:21:30;22.23;;;13.25;;
37983;SDS011;64625;50.882;4.376;2022-10-31T06:23:56;24.15;;;11.80;;
37983;SDS011;64625;50.882;4.376;2022-10-31T06:26:23;29.95;;;11.73;;
37983;SDS011;64625;50.882;4.376;2022-10-31T06:28:49;26.73;;;11.48;;
37983;SDS011;64625;50.882;4.376;2022-10-31T06:31:15;23.63;;;10.85;;
37983;SDS011;64625;50.882;4.376;2022-10-31T06:33:41;20.63;;;10.20;;
37983;SDS011;64625;50.882;4.376;2022-10-31T06:36:10;19.55;;;10.70;;
37983;SDS011;64625;50.882;4.376;2022-10-31T06:38:36;27.05;;;13.98;;
37983;SDS011;64625;50.882;4.376;2022-10-31T06:41:05;29.13;;;10.95;;
37983;SDS011;64625;50.882;4.376;2022-10-31T06:43:31;31.42;;;12.82;;
37983;SDS011;64625;50.882;4.376;2022-10-31T06:45:57;26.80;;;11.70;;
37983;SDS011;64625;50.882;4.376;2022-10-31T06:48:28;30.05;;;12.40;;
37983;SDS011;64625;50.882;4.376;2022-10-31T06:50:57;20.95;;;12.05;;
37983;SDS011;64625;50.882;4.376;2022-10-31T06:53:24;29.45;;;13.25;;
37983;SDS011;64625;50.882;4.376;2022-10-31T06:55:49;25.80;;;12.73;;
37983;SDS011;64625;50.882;4.376;2022-10-31T06:58:15;35.28;;;15.27;;
37983;SDS011;64625;50.882;4.376;2022-10-31T07:00:41;39.13;;;15.57;;
37983;SDS011;64625;50.882;4.376;2022-10-31T07:03:09;30.35;;;14.77;;
37983;SDS011;64625;50.882;4.376;2022-10-31T07:05:36;31.13;;;13.80;;
37983;SDS011;64625;50.882;4.376;2022-10-31T07:08:03;40.92;;;15.40;;
37983;SDS011;64625;50.882;4.376;2022-10-31T07:10:32;31.27;;;14.63;;
37983;SDS011;64625;50.882;4.376;2022-10-31T07:12:59;29.08;;;13.95;;
37983;SDS011;64625;50.882;4.376;2022-10-31T07:15:35;34.90;;;16.08;;
37983;SDS011;64625;50.882;4.376;2022-10-31T07:18:04;27.30;;;14.52;;
37983;SDS011;64625;50.882;4.376;2022-10-31T07:20:31;29.15;;;14.88;;
37983;SDS011;64625;50.882;4.376;2022-10-31T07:22:57;30.92;;;14.95;;
37983;SDS011;64625;50.882;4.376;2022-10-31T07:25:24;33.03;;;16.58;;
37983;SDS011;64625;50.882;4.376;2022-10-31T07:27:53;36.22;;;14.75;;
37983;SDS011;64625;50.882;4.376;2022-10-31T07:30:19;31.02;;;15.35;;
37983;SDS011;64625;50.882;4.376;2022-10-31T07:32:48;29.88;;;16.83;;
37983;SDS011;64625;50.882;4.376;2022-10-31T07:35:17;25.40;;;14.35;;
37983;SDS011;64625;50.882;4.376;2022-10-31T07:37:45;25.77;;;15.52;;
37983;SDS011;64625;50.882;4.376;2022-10-31T07:40:11;30.65;;;16.95;;
37983;SDS011;64625;50.882;4.376;2022-10-31T07:42:38;28.23;;;17.05;;
37983;SDS011;64625;50.882;4.376;2022-10-31T07:45:05;38.67;;;15.15;;
37983;SDS011;64625;50.882;4.376;2022-10-31T07:47:39;36.97;;;18.17;;
37983;SDS011;64625;50.882;4.376;2022-10-31T07:50:11;41.17;;;16.70;;
37983;SDS011;64625;50.882;4.376;2022-10-31T07:52:44;35.90;;;15.45;;
37983;SDS011;64625;50.882;4.376;2022-10-31T07:55:10;31.35;;;15.23;;
37983;SDS011;64625;50.882;4.376;2022-10-31T07:57:36;34.42;;;15.27;;
37983;SDS011;64625;50.882;4.376;2022-10-31T08:00:06;32.17;;;15.35;;
37983;SDS011;64625;50.882;4.376;2022-10-31T08:02:34;40.95;;;15.30;;
37983;SDS011;64625;50.882;4.376;2022-10-31T08:04:59;50.20;;;16.48;;
37983;SDS011;64625;50.882;4.376;2022-10-31T08:07:27;31.95;;;14.55;;
37983;SDS011;64625;50.882;4.376;2022-10-31T08:09:53;25.30;;;11.43;;
37983;SDS011;64625;50.882;4.376;2022-10-31T08:12:19;42.45;;;15.57;;
37983;SDS011;64625;50.882;4.376;2022-10-31T08:14:46;33.47;;;14.85;;
37983;SDS011;64625;50.882;4.376;2022-10-31T08:17:11;30.17;;;15.05;;
37983;SDS011;64625;50.882;4.376;2022-10-31T08:19:37;30.38;;;15.05;;
37983;SDS011;64625;50.882;4.376;2022-10-31T08:22:03;26.85;;;14.95;;
37983;SDS011;64625;50.882;4.376;2022-10-31T08:24:29;28.85;;;16.13;;
37983;SDS011;64625;50.882;4.376;2022-10-31T08:26:55;22.58;;;15.27;;
37983;SDS011;64625;50.882;4.376;2022-10-31T08:29:20;33.03;;;17.15;;
37983;SDS011;64625;50.882;4.376;2022-10-31T08:31:46;48.92;;;18.40;;
37983;SDS011;64625;50.882;4.376;2022-10-31T08:34:12;26.25;;;14.45;;
37983;SDS011;64625;50.882;4.376;2022-10-31T08:36:38;45.38;;;16.95;;
37983;SDS011;64625;50.882;4.376;2022-10-31T08:39:03;30.70;;;14.90;;
37983;SDS011;64625;50.882;4.376;2022-10-31T08:41:29;28.50;;;15.80;;
37983;SDS011;64625;50.882;4.376;2022-10-31T08:43:55;29.42;;;14.38;;
37983;SDS011;64625;50.882;4.376;2022-10-31T08:46:22;26.95;;;15.38;;
37983;SDS011;64625;50.882;4.376;2022-10-31T08:48:48;27.65;;;15.48;;
37983;SDS011;64625;50.882;4.376;2022-10-31T08:51:14;31.25;;;15.77;;
37983;SDS011;64625;50.882;4.376;2022-10-31T08:53:40;34.55;;;15.98;;
37983;SDS011;64625;50.882;4.376;2022-10-31T08:56:06;27.65;;;14.48;;
37983;SDS011;64625;50.882;4.376;2022-10-31T08:58:32;21.40;;;13.88;;
37983;SDS011;64625;50.882;4.376;2022-10-31T09:00:58;33.33;;;15.43;;
37983;SDS011;64625;50.882;4.376;2022-10-31T09:03:30;27.20;;;14.57;;
37983;SDS011;64625;50.882;4.376;2022-10-31T09:06:00;31.98;;;15.07;;
37983;SDS011;64625;50.882;4.376;2022-10-31T09:08:30;33.33;;;15.05;;
37983;SDS011;64625;50.882;4.376;2022-10-31T09:10:57;24.80;;;13.90;;
37983;SDS011;64625;50.882;4.376;2022-10-31T09:13:23;26.50;;;15.23;;
37983;SDS011;64625;50.882;4.376;2022-10-31T09:15:49;32.10;;;18.73;;
37983;SDS011;64625;50.882;4.376;2022-10-31T09:18:19;26.73;;;13.85;;
37983;SDS011;64625;50.882;4.376;2022-10-31T09:20:47;21.30;;;12.38;;
37983;SDS011;64625;50.882;4.376;2022-10-31T09:23:16;24.38;;;13.20;;
37983;SDS011;64625;50.882;4.376;2022-10-31T09:25:44;24.05;;;13.00;;
37983;SDS011;64625;50.882;4.376;2022-10-31T09:28:12;21.65;;;13.73;;
37983;SDS011;64625;50.882;4.376;2022-10-31T09:30:39;25.17;;;12.48;;
37983;SDS011;64625;50.882;4.376;2022-10-31T09:33:07;27.42;;;13.25;;
37983;SDS011;64625;50.882;4.376;2022-10-31T09:35:36;19.20;;;11.43;;
37983;SDS011;64625;50.882;4.376;2022-10-31T09:38:04;23.10;;;12.73;;
37983;SDS011;64625;50.882;4.376;2022-10-31T09:40:35;23.42;;;12.18;;
37983;SDS011;64625;50.882;4.376;2022-10-31T09:48:44;20.45;;;13.40;;
37983;SDS011;64625;50.882;4.376;2022-10-31T09:51:33;26.55;;;12.73;;
37983;SDS011;64625;50.882;4.376;2022-10-31T09:54:08;21.02;;;12.90;;
37983;SDS011;64625;50.882;4.376;2022-10-31T09:56:39;26.30;;;12.70;;
37983;SDS011;64625;50.882;4.376;2022-10-31T09:59:06;28.52;;;12.80;;
37983;SDS011;64625;50.882;4.376;2022-10-31T10:02:01;30.35;;;13.32;;
37983;SDS011;64625;50.882;4.376;2022-10-31T10:04:33;33.80;;;12.90;;
37983;SDS011;64625;50.882;4.376;2022-10-31T10:07:19;25.40;;;13.52;;
37983;SDS011;64625;50.882;4.376;2022-10-31T10:10:12;25.17;;;13.38;;
37983;SDS011;64625;50.882;4.376;2022-10-31T10:16:03;23.88;;;12.32;;
37983;SDS011;64625;50.882;4.376;2022-10-31T10:22:00;32.72;;;12.98;;
37983;SDS011;64625;50.882;4.376;2022-10-31T10:25:12;21.77;;;12.05;;
37983;SDS011;64625;50.882;4.376;2022-10-31T10:30:58;18.10;;;10.82;;
37983;SDS011;64625;50.882;4.376;2022-10-31T10:33:28;20.88;;;13.02;;
37983;SDS011;64625;50.882;4.376;2022-10-31T10:36:26;25.17;;;13.25;;
37983;SDS011;64625;50.882;4.376;2022-10-31T10:39:14;26.45;;;11.80;;
37983;SDS011;64625;50.882;4.376;2022-10-31T10:41:41;21.55;;;11.70;;
37983;SDS011;64625;50.882;4.376;2022-10-31T10:44:12;30.00;;;15.00;;
37983;SDS011;64625;50.882;4.376;2022-10-31T10:46:41;29.85;;;12.15;;
37983;SDS011;64625;50.882;4.376;2022-10-31T10:54:54;25.58;;;12.90;;
37983;SDS011;64625;50.882;4.376;2022-10-31T11:02:52;23.60;;;12.45;;
37983;SDS011;64625;50.882;4.376;2022-10-31T11:05:23;26.00;;;13.05;;
37983;SDS011;64625;50.882;4.376;2022-10-31T11:07:53;41.83;;;13.45;;
37983;SDS011;64625;50.882;4.376;2022-10-31T11:10:19;27.38;;;12.35;;
37983;SDS011;64625;50.882;4.376;2022-10-31T11:12:57;23.08;;;12.38;;
37983;SDS011;64625;50.882;4.376;2022-10-31T11:18:31;23.38;;;12.27;;
37983;SDS011;64625;50.882;4.376;2022-10-31T11:21:00;21.13;;;11.98;;
37983;SDS011;64625;50.882;4.376;2022-10-31T11:23:29;27.98;;;11.40;;
37983;SDS011;64625;50.882;4.376;2022-10-31T11:26:00;31.75;;;12.52;;
37983;SDS011;64625;50.882;4.376;2022-10-31T11:28:31;23.13;;;10.70;;
37983;SDS011;64625;50.882;4.376;2022-10-31T11:31:01;21.85;;;11.48;;
37983;SDS011;64625;50.882;4.376;2022-10-31T11:33:44;22.13;;;11.77;;
37983;SDS011;64625;50.882;4.376;2022-10-31T11:36:18;22.67;;;10.73;;
37983;SDS011;64625;50.882;4.376;2022-10-31T11:38:49;20.23;;;10.05;;
37983;SDS011;64625;50.882;4.376;2022-10-31T11:41:24;34.42;;;12.30;;
37983;SDS011;64625;50.882;4.376;2022-10-31T11:44:36;20.88;;;11.65;;
37983;SDS011;64625;50.882;4.376;2022-10-31T11:46:58;21.67;;;10.45;;
37983;SDS011;64625;50.882;4.376;2022-10-31T11:49:35;20.98;;;11.90;;
37983;SDS011;64625;50.882;4.376;2022-10-31T11:52:12;24.45;;;10.43;;
37983;SDS011;64625;50.882;4.376;2022-10-31T11:57:31;19.73;;;10.65;;
37983;SDS011;64625;50.882;4.376;2022-10-31T11:59:59;22.20;;;9.38;;
37983;SDS011;64625;50.882;4.376;2022-10-31T12:02:28;26.10;;;12.15;;
37983;SDS011;64625;50.882;4.376;2022-10-31T12:07:48;25.08;;;10.85;;
37983;SDS011;64625;50.882;4.376;2022-10-31T12:10:14;20.67;;;9.48;;
37983;SDS011;64625;50.882;4.376;2022-10-31T12:12:48;29.77;;;9.98;;
37983;SDS011;64625;50.882;4.376;2022-10-31T12:15:35;39.47;;;10.82;;
37983;SDS011;64625;50.882;4.376;2022-10-31T12:23:24;22.80;;;11.02;;
37983;SDS011;64625;50.882;4.376;2022-10-31T12:26:14;28.80;;;9.25;;
37983;SDS011;64625;50.882;4.376;2022-10-31T12:42:45;17.20;;;8.35;;
37983;SDS011;64625;50.882;4.376;2022-10-31T12:45:27;17.92;;;8.70;;
37983;SDS011;64625;50.882;4.376;2022-10-31T13:01:29;17.77;;;7.07;;
37983;SDS011;64625;50.882;4.376;2022-10-31T13:04:03;15.32;;;7.97;;
37983;SDS011;64625;50.882;4.376;2022-10-31T13:06:38;15.90;;;7.60;;
37983;SDS011;64625;50.882;4.376;2022-10-31T13:09:20;17.65;;;8.55;;
37983;SDS011;64625;50.882;4.376;2022-10-31T13:12:01;17.40;;;7.55;;
37983;SDS011;64625;50.882;4.376;2022-10-31T13:19:49;15.82;;;6.32;;
37983;SDS011;64625;50.882;4.376;2022-10-31T13:22:21;23.02;;;8.50;;
37983;SDS011;64625;50.882;4.376;2022-10-31T13:24:58;21.17;;;8.02;;
37983;SDS011;64625;50.882;4.376;2022-10-31T13:27:36;21.30;;;7.88;;
37983;SDS011;64625;50.882;4.376;2022-10-31T13:30:15;27.00;;;9.77;;
37983;SDS011;64625;50.882;4.376;2022-10-31T13:35:20;24.45;;;7.65;;
37983;SDS011;64625;50.882;4.376;2022-10-31T13:41:05;21.30;;;7.45;;
37983;SDS011;64625;50.882;4.376;2022-10-31T13:48:57;15.43;;;6.78;;
37983;SDS011;64625;50.882;4.376;2022-10-31T13:51:25;18.63;;;7.78;;
37983;SDS011;64625;50.882;4.376;2022-10-31T13:56:48;16.02;;;6.57;;
37983;SDS011;64625;50.882;4.376;2022-10-31T13:59:17;17.38;;;7.45;;
37983;SDS011;64625;50.882;4.376;2022-10-31T14:01:58;31.10;;;6.93;;
37983;SDS011;64625;50.882;4.376;2022-10-31T14:04:31;25.30;;;6.95;;
37983;SDS011;64625;50.882;4.376;2022-10-31T14:07:06;15.85;;;7.15;;
37983;SDS011;64625;50.882;4.376;2022-10-31T14:09:39;23.67;;;7.20;;
37983;SDS011;64625;50.882;4.376;2022-10-31T14:17:50;18.45;;;8.30;;
37983;SDS011;64625;50.882;4.376;2022-10-31T14:28:51;22.25;;;7.00;;
37983;SDS011;64625;50.882;4.376;2022-10-31T14:39:31;23.67;;;6.30;;
37983;SDS011;64625;50.882;4.376;2022-10-31T14:45:05;20.08;;;5.47;;
37983;SDS011;64625;50.882;4.376;2022-10-31T14:53:01;16.52;;;5.80;;
37983;SDS011;64625;50.882;4.376;2022-10-31T14:55:30;12.18;;;5.30;;
37983;SDS011;64625;50.882;4.376;2022-10-31T14:58:01;15.57;;;5.72;;
37983;SDS011;64625;50.882;4.376;2022-10-31T15:00:32;13.25;;;5.63;;
37983;SDS011;64625;50.882;4.376;2022-10-31T15:05:34;16.45;;;6.78;;
37983;SDS011;64625;50.882;4.376;2022-10-31T15:14:02;17.05;;;6.75;;
37983;SDS011;64625;50.882;4.376;2022-10-31T15:16:46;20.45;;;6.22;;
37983;SDS011;64625;50.882;4.376;2022-10-31T15:19:13;23.52;;;6.05;;
37983;SDS011;64625;50.882;4.376;2022-10-31T15:21:53;17.63;;;6.97;;
37983;SDS011;64625;50.882;4.376;2022-10-31T15:24:20;17.42;;;7.03;;
37983;SDS011;64625;50.882;4.376;2022-10-31T15:26:51;20.00;;;6.28;;
37983;SDS011;64625;50.882;4.376;2022-10-31T15:29:20;22.67;;;7.10;;
37983;SDS011;64625;50.882;4.376;2022-10-31T15:31:51;23.92;;;7.10;;
37983;SDS011;64625;50.882;4.376;2022-10-31T15:34:21;27.58;;;7.10;;
37983;SDS011;64625;50.882;4.376;2022-10-31T15:36:54;14.80;;;7.75;;
37983;SDS011;64625;50.882;4.376;2022-10-31T15:39:20;22.02;;;7.57;;
37983;SDS011;64625;50.882;4.376;2022-10-31T15:41:53;18.98;;;7.20;;
37983;SDS011;64625;50.882;4.376;2022-10-31T15:44:25;22.42;;;7.32;;
37983;SDS011;64625;50.882;4.376;2022-10-31T15:46:57;22.48;;;7.22;;
37983;SDS011;64625;50.882;4.376;2022-10-31T15:49:32;22.17;;;8.75;;
37983;SDS011;64625;50.882;4.376;2022-10-31T15:52:14;19.38;;;7.97;;
37983;SDS011;64625;50.882;4.376;2022-10-31T15:54:58;25.75;;;8.27;;
37983;SDS011;64625;50.882;4.376;2022-10-31T15:57:29;18.83;;;7.55;;
37983;SDS011;64625;50.882;4.376;2022-10-31T15:59:58;26.52;;;8.85;;
37983;SDS011;64625;50.882;4.376;2022-10-31T16:02:25;30.67;;;10.15;;
37983;SDS011;64625;50.882;4.376;2022-10-31T16:04:56;18.42;;;9.30;;
37983;SDS011;64625;50.882;4.376;2022-10-31T16:07:26;20.65;;;9.07;;
37983;SDS011;64625;50.882;4.376;2022-10-31T16:10:00;22.25;;;9.65;;
37983;SDS011;64625;50.882;4.376;2022-10-31T16:12:36;24.67;;;8.75;;
37983;SDS011;64625;50.882;4.376;2022-10-31T16:15:13;22.50;;;9.35;;
37983;SDS011;64625;50.882;4.376;2022-10-31T16:17:41;17.85;;;8.95;;
37983;SDS011;64625;50.882;4.376;2022-10-31T16:20:25;26.40;;;9.77;;
37983;SDS011;64625;50.882;4.376;2022-10-31T16:22:54;24.08;;;10.40;;
37983;SDS011;64625;50.882;4.376;2022-10-31T16:28:03;21.47;;;8.03;;
37983;SDS011;64625;50.882;4.376;2022-10-31T16:30:39;25.98;;;8.02;;
37983;SDS011;64625;50.882;4.376;2022-10-31T16:38:52;26.33;;;8.00;;
37983;SDS011;64625;50.882;4.376;2022-10-31T16:41:18;24.58;;;7.82;;
37983;SDS011;64625;50.882;4.376;2022-10-31T16:43:44;34.90;;;10.77;;
37983;SDS011;64625;50.882;4.376;2022-10-31T16:46:14;25.08;;;8.38;;
37983;SDS011;64625;50.882;4.376;2022-10-31T16:48:41;18.20;;;7.82;;
37983;SDS011;64625;50.882;4.376;2022-10-31T16:51:09;18.17;;;8.45;;
37983;SDS011;64625;50.882;4.376;2022-10-31T16:53:35;23.00;;;9.95;;
37983;SDS011;64625;50.882;4.376;2022-10-31T16:56:02;25.27;;;9.88;;
37983;SDS011;64625;50.882;4.376;2022-10-31T16:58:30;19.58;;;8.45;;
37983;SDS011;64625;50.882;4.376;2022-10-31T17:01:00;24.77;;;8.40;;
37983;SDS011;64625;50.882;4.376;2022-10-31T17:03:29;22.13;;;10.20;;
37983;SDS011;64625;50.882;4.376;2022-10-31T17:05:55;27.63;;;9.02;;
37983;SDS011;64625;50.882;4.376;2022-10-31T17:08:22;32.03;;;13.02;;
37983;SDS011;64625;50.882;4.376;2022-10-31T17:10:53;42.47;;;14.38;;
37983;SDS011;64625;50.882;4.376;2022-10-31T17:13:21;24.58;;;9.60;;
37983;SDS011;64625;50.882;4.376;2022-10-31T17:15:50;26.25;;;9.65;;
37983;SDS011;64625;50.882;4.376;2022-10-31T17:18:19;24.50;;;8.60;;
37983;SDS011;64625;50.882;4.376;2022-10-31T17:20:45;28.63;;;9.60;;
37983;SDS011;64625;50.882;4.376;2022-10-31T17:23:12;24.80;;;8.70;;
37983;SDS011;64625;50.882;4.376;2022-10-31T17:25:40;26.52;;;7.45;;
37983;SDS011;64625;50.882;4.376;2022-10-31T17:28:10;22.08;;;9.30;;
37983;SDS011;64625;50.882;4.376;2022-10-31T17:30:37;19.10;;;8.03;;
37983;SDS011;64625;50.882;4.376;2022-10-31T17:33:04;28.58;;;10.05;;
37983;SDS011;64625;50.882;4.376;2022-10-31T17:35:30;16.50;;;7.78;;
37983;SDS011;64625;50.882;4.376;2022-10-31T17:37:56;9.63;;;6.38;;
37983;SDS011;64625;50.882;4.376;2022-10-31T17:40:22;19.67;;;9.57;;
37983;SDS011;64625;50.882;4.376;2022-10-31T17:42:50;22.52;;;6.63;;
37983;SDS011;64625;50.882;4.376;2022-10-31T17:45:18;14.27;;;6.82;;
37983;SDS011;64625;50.882;4.376;2022-10-31T17:47:49;24.63;;;7.13;;